Time;durP1;ratioP1;P1;durP2;ratioP2;P2;SDS_P1;SDS_P2;PMS_P1;PMS_P2;Temp;Humidity;BMP_temperature;BMP_pressure;BME280_temperature;BME280_humidity;BME280_pressure;Samples;Min_cycle;Max_cycle;Signal;HPM_P1;HPM_P2
2022/01/04 00:02:04;;;;;;;2.77;1.80;;;7.50;99.90;;;;;;8416213;28;20188;-68
2022/01/04 00:06:05;;;;;;;2.50;1.60;;;7.50;99.90;;;;;;8420539;28;20180;-70
2022/01/04 00:10:10;;;;;;;4.13;1.97;;;7.50;99.90;;;;;;8432313;28;20192;-70
2022/01/04 00:14:11;;;;;;;4.60;1.80;;;7.50;99.90;;;;;;8417507;28;20215;-70
2022/01/04 00:18:12;;;;;;;3.17;1.10;;;7.50;99.90;;;;;;8425075;28;20216;-69
2022/01/04 00:22:13;;;;;;;2.60;1.27;;;7.50;99.90;;;;;;8422450;28;20234;-68
2022/01/04 00:26:14;;;;;;;3.27;1.40;;;7.50;99.90;;;;;;8415498;28;20169;-67
2022/01/04 00:30:15;;;;;;;2.17;1.20;;;7.40;99.90;;;;;;8417294;28;20177;-70
2022/01/04 00:34:16;;;;;;;2.20;1.83;;;7.30;99.90;;;;;;8419384;28;20189;-72
2022/01/04 00:38:17;;;;;;;2.17;0.90;;;7.20;99.90;;;;;;8408978;28;20241;-69
2022/01/04 00:42:18;;;;;;;1.90;1.00;;;7.10;99.90;;;;;;8409213;28;20181;-70
2022/01/04 00:46:19;;;;;;;1.90;1.30;;;7.10;99.90;;;;;;8418015;28;20212;-70
2022/01/04 00:50:23;;;;;;;1.57;0.60;;;7.00;99.90;;;;;;8423100;28;20184;-68
2022/01/04 00:54:24;;;;;;;1.13;0.90;;;6.90;99.90;;;;;;8422678;28;20185;-67
2022/01/04 00:58:25;;;;;;;1.40;0.90;;;6.90;99.90;;;;;;8418628;28;20196;-70
2022/01/04 01:02:25;;;;;;;2.53;0.90;;;6.80;99.90;;;;;;8416271;28;20486;-70
2022/01/04 01:06:26;;;;;;;1.20;0.80;;;6.70;99.90;;;;;;8422243;28;20182;-70
2022/01/04 01:14:38;;;;;;;3.90;1.10;;;6.80;99.90;;;;;;8409895;28;20184;-69
2022/01/04 01:18:39;;;;;;;0.80;0.60;;;6.80;99.90;;;;;;8420819;28;20224;-67
2022/01/04 01:22:41;;;;;;;1.10;0.60;;;7.00;99.90;;;;;;8421586;28;20199;-70
2022/01/04 01:26:41;;;;;;;1.53;0.60;;;7.10;99.90;;;;;;8416363;28;20180;-68
2022/01/04 01:30:44;;;;;;;2.50;0.90;;;7.20;99.90;;;;;;8421787;28;20188;-69
2022/01/04 01:34:44;;;;;;;2.20;0.73;;;7.30;99.90;;;;;;8415693;28;20181;-67
2022/01/04 01:38:45;;;;;;;2.03;1.17;;;7.40;99.90;;;;;;8421939;28;20216;-70
2022/01/04 01:42:46;;;;;;;1.33;0.70;;;7.40;99.90;;;;;;8406186;28;20196;-67
2022/01/04 01:46:47;;;;;;;3.73;1.27;;;7.50;99.90;;;;;;8418951;28;20176;-70
2022/01/04 01:50:49;;;;;;;2.73;1.70;;;7.50;99.90;;;;;;8409392;28;20180;-70
2022/01/04 01:54:49;;;;;;;1.53;1.27;;;7.40;99.90;;;;;;8417073;28;20176;-69
2022/01/04 01:58:50;;;;;;;0.77;0.57;;;7.30;99.90;;;;;;8420332;28;20199;-70
2022/01/04 02:02:52;;;;;;;1.67;1.13;;;7.30;99.90;;;;;;8413842;28;20260;-71
2022/01/04 02:06:53;;;;;;;2.13;0.90;;;7.20;99.90;;;;;;8412677;28;20181;-71
2022/01/04 02:10:56;;;;;;;0.60;0.40;;;7.10;99.90;;;;;;8412073;28;20234;-71
2022/01/04 02:14:58;;;;;;;0.80;0.50;;;7.00;99.90;;;;;;8418816;28;20242;-71
2022/01/04 02:19:05;;;;;;;0.97;0.50;;;6.90;99.90;;;;;;8419413;28;20192;-69
2022/01/04 02:23:05;;;;;;;1.17;0.70;;;6.80;99.90;;;;;;8420940;28;20173;-70
2022/01/04 02:27:06;;;;;;;0.70;0.70;;;6.80;99.90;;;;;;8421733;28;20195;-70
2022/01/04 02:31:07;;;;;;;1.53;0.60;;;6.80;99.90;;;;;;8411821;28;20180;-71
2022/01/04 02:35:09;;;;;;;0.83;0.57;;;6.80;99.90;;;;;;8416327;28;20245;-71
2022/01/04 02:39:10;;;;;;;1.33;0.53;;;6.80;99.90;;;;;;8414519;28;20223;-69
2022/01/04 02:43:14;;;;;;;0.70;0.47;;;6.90;99.90;;;;;;8407622;28;20192;-71
2022/01/04 02:47:15;;;;;;;0.97;0.83;;;7.00;99.90;;;;;;8409305;28;20195;-70
2022/01/04 02:51:18;;;;;;;0.93;0.70;;;7.10;99.90;;;;;;8415326;28;20271;-70
2022/01/04 02:55:19;;;;;;;1.00;0.80;;;7.10;99.90;;;;;;8406952;28;20184;-70
2022/01/04 02:59:20;;;;;;;1.27;0.80;;;7.20;99.90;;;;;;8412245;28;20212;-71
2022/01/04 03:03:21;;;;;;;0.67;0.60;;;7.20;99.90;;;;;;8412855;28;20185;-69
2022/01/04 03:07:22;;;;;;;0.73;0.60;;;7.30;99.90;;;;;;8411426;28;20190;-71
2022/01/04 03:11:24;;;;;;;0.70;0.50;;;7.30;99.90;;;;;;8409719;28;20193;-70
2022/01/04 03:15:25;;;;;;;1.30;1.20;;;7.40;99.90;;;;;;8403502;28;20211;-70
2022/01/04 03:19:26;;;;;;;1.20;0.53;;;7.40;99.90;;;;;;8417059;28;20239;-70
2022/01/04 03:23:27;;;;;;;0.90;0.60;;;7.50;99.90;;;;;;8417458;28;20192;-67
2022/01/04 03:27:29;;;;;;;0.93;0.80;;;7.50;99.90;;;;;;8420141;28;20283;-70
2022/01/04 03:31:30;;;;;;;3.87;1.77;;;7.40;99.90;;;;;;8411891;28;20192;-70
2022/01/04 03:35:31;;;;;;;2.00;1.30;;;7.30;99.90;;;;;;8426201;28;20222;-71
2022/01/04 03:39:32;;;;;;;1.90;1.00;;;7.30;99.90;;;;;;8422263;28;20208;-70
2022/01/04 03:43:33;;;;;;;1.63;1.20;;;7.30;99.90;;;;;;8423438;28;20188;-69
2022/01/04 03:47:35;;;;;;;2.57;1.60;;;7.20;99.90;;;;;;8405726;28;20264;-68
2022/01/04 03:51:36;;;;;;;2.80;1.13;;;7.30;99.90;;;;;;8418074;28;20347;-71
2022/01/04 03:55:37;;;;;;;1.40;1.17;;;7.40;99.90;;;;;;8425231;28;20196;-70
2022/01/04 03:59:38;;;;;;;1.00;0.90;;;7.50;99.90;;;;;;8424958;28;20235;-71
2022/01/04 04:03:39;;;;;;;2.03;0.90;;;7.50;99.90;;;;;;8423692;28;20196;-71
2022/01/04 04:07:39;;;;;;;1.23;1.03;;;7.60;99.90;;;;;;8420444;28;20270;-68
2022/01/04 04:11:40;;;;;;;1.50;1.00;;;7.70;99.90;;;;;;8421123;28;20184;-71
2022/01/04 04:15:41;;;;;;;1.77;1.20;;;7.70;99.90;;;;;;8425009;28;20212;-70
2022/01/04 04:19:42;;;;;;;2.10;1.20;;;7.80;99.90;;;;;;8427853;28;20474;-69
2022/01/04 04:23:43;;;;;;;2.20;1.90;;;7.80;99.90;;;;;;8423982;28;20172;-69
2022/01/04 04:27:44;;;;;;;4.80;1.73;;;7.80;99.90;;;;;;8423925;28;20180;-70
2022/01/04 04:31:45;;;;;;;1.63;1.37;;;7.80;99.90;;;;;;8422146;28;20188;-69
2022/01/04 04:35:46;;;;;;;1.90;1.60;;;7.80;99.90;;;;;;8426658;28;20189;-71
2022/01/04 04:39:47;;;;;;;5.97;5.47;;;7.90;99.90;;;;;;8419753;28;20230;-69
2022/01/04 04:43:53;;;;;;;4.47;4.07;;;7.90;99.90;;;;;;8420105;28;20180;-71
2022/01/04 04:47:53;;;;;;;3.90;2.80;;;7.90;99.90;;;;;;8419191;28;20181;-69
2022/01/04 04:51:59;;;;;;;7.57;4.20;;;7.90;99.90;;;;;;8423736;28;20193;-70
2022/01/04 04:56:00;;;;;;;4.67;2.40;;;8.00;99.90;;;;;;8420463;28;20194;-71
2022/01/04 05:00:00;;;;;;;4.27;2.23;;;8.00;99.90;;;;;;8424956;28;20220;-69
2022/01/04 05:04:02;;;;;;;2.53;2.00;;;8.00;99.90;;;;;;8419252;28;20193;-71
2022/01/04 05:08:03;;;;;;;2.50;1.70;;;8.00;99.90;;;;;;8419336;28;20184;-69
2022/01/04 05:12:06;;;;;;;5.20;2.03;;;8.00;99.90;;;;;;8424035;28;20248;-70
2022/01/04 05:16:06;;;;;;;2.47;2.20;;;8.00;99.90;;;;;;8425712;28;20201;-71
2022/01/04 05:20:08;;;;;;;3.40;2.03;;;8.00;99.90;;;;;;8425027;28;20327;-71
2022/01/04 05:24:09;;;;;;;3.60;2.37;;;8.00;99.90;;;;;;8426923;28;20188;-71
2022/01/04 05:28:10;;;;;;;3.83;2.17;;;7.90;99.90;;;;;;8415304;28;20271;-71
2022/01/04 05:32:11;;;;;;;5.83;3.63;;;7.90;99.90;;;;;;8422357;28;20250;-70
2022/01/04 05:36:11;;;;;;;6.27;3.37;;;7.80;99.90;;;;;;8410442;28;20181;-70
2022/01/04 05:40:12;;;;;;;3.47;2.90;;;7.80;99.90;;;;;;8414761;28;20211;-71
2022/01/04 05:44:13;;;;;;;6.80;4.43;;;7.80;99.90;;;;;;8425328;28;20223;-71
2022/01/04 05:48:14;;;;;;;9.50;4.17;;;7.80;99.90;;;;;;8416738;28;20181;-67
2022/01/04 05:52:15;;;;;;;3.50;2.50;;;7.80;99.90;;;;;;8421394;28;20251;-70
2022/01/04 05:56:15;;;;;;;5.40;4.53;;;7.70;99.90;;;;;;8412530;28;20294;-71
2022/01/04 06:00:17;;;;;;;4.93;3.53;;;7.70;99.90;;;;;;8425827;28;20216;-71
2022/01/04 06:04:18;;;;;;;4.30;2.20;;;7.70;99.90;;;;;;8409722;28;20185;-72
2022/01/04 06:08:20;;;;;;;2.00;1.80;;;7.60;99.90;;;;;;8417670;28;20188;-73
2022/01/04 06:16:30;;;;;;;4.47;3.17;;;7.60;99.90;;;;;;8418587;28;20215;-72
2022/01/04 06:20:31;;;;;;;4.03;3.60;;;7.50;99.90;;;;;;8413974;28;20247;-71
2022/01/04 06:24:32;;;;;;;5.80;3.80;;;7.50;99.90;;;;;;8417192;28;20198;-70
2022/01/04 06:28:33;;;;;;;6.13;3.00;;;7.50;99.90;;;;;;8416797;28;20252;-72
2022/01/04 06:32:36;;;;;;;5.60;2.70;;;7.50;99.90;;;;;;8406354;28;20188;-72
2022/01/04 06:36:37;;;;;;;4.30;2.77;;;7.50;99.90;;;;;;8408412;28;20189;-69
2022/01/04 06:40:37;;;;;;;4.37;2.77;;;7.50;99.90;;;;;;8415266;28;20228;-71
2022/01/04 06:44:41;;;;;;;4.27;2.40;;;7.40;99.90;;;;;;8410855;28;20275;-72
2022/01/04 06:48:42;;;;;;;4.77;2.50;;;7.40;99.90;;;;;;8416432;28;20188;-70
2022/01/04 06:52:43;;;;;;;2.13;1.70;;;7.40;99.90;;;;;;8417035;28;20189;-71
2022/01/04 06:56:44;;;;;;;3.67;2.73;;;7.30;99.90;;;;;;8412202;28;20342;-71
2022/01/04 07:00:46;;;;;;;6.23;5.73;;;7.30;99.90;;;;;;8417228;28;20207;-71
2022/01/04 07:04:46;;;;;;;9.20;8.30;;;7.30;99.90;;;;;;8412322;28;20195;-70
2022/01/04 07:08:47;;;;;;;16.37;7.90;;;7.30;99.90;;;;;;8414021;28;20261;-71
2022/01/04 07:12:48;;;;;;;9.13;5.20;;;7.30;99.90;;;;;;8417831;28;20192;-71
2022/01/04 07:16:49;;;;;;;7.50;4.33;;;7.30;99.90;;;;;;8422670;28;20266;-71
2022/01/04 07:20:50;;;;;;;5.00;3.10;;;7.30;99.90;;;;;;8414860;28;20291;-72
2022/01/04 07:24:51;;;;;;;4.47;2.80;;;7.30;99.90;;;;;;8416138;28;20188;-71
2022/01/04 07:28:52;;;;;;;4.10;2.20;;;7.30;99.90;;;;;;8421329;28;20196;-70
2022/01/04 07:32:53;;;;;;;3.43;2.07;;;7.30;99.90;;;;;;8419043;28;20189;-70
2022/01/04 07:36:53;;;;;;;13.87;12.50;;;7.40;99.90;;;;;;8413637;28;20184;-71
2022/01/04 07:40:54;;;;;;;16.40;14.90;;;7.40;99.90;;;;;;8412172;28;20212;-70
2022/01/04 07:44:55;;;;;;;14.77;9.67;;;7.40;99.90;;;;;;8416611;28;20227;-71
2022/01/04 07:48:56;;;;;;;9.63;6.30;;;7.40;99.90;;;;;;8411599;28;20185;-71
2022/01/04 07:52:57;;;;;;;7.90;5.50;;;7.50;99.90;;;;;;8407519;28;20228;-72
2022/01/04 07:56:57;;;;;;;6.40;4.23;;;7.50;99.90;;;;;;8422180;28;20192;-71
2022/01/04 08:00:58;;;;;;;11.13;5.83;;;7.60;99.90;;;;;;8413003;28;20222;-69
2022/01/04 08:04:59;;;;;;;7.53;4.23;;;7.70;99.90;;;;;;8411369;28;20196;-72
2022/01/04 08:09:00;;;;;;;5.67;4.30;;;7.80;99.90;;;;;;8417218;28;20260;-71
2022/01/04 08:13:00;;;;;;;9.47;4.80;;;7.90;99.90;;;;;;8414016;28;20184;-67
2022/01/04 08:17:02;;;;;;;10.27;7.93;;;8.00;99.90;;;;;;8418570;28;20220;-67
2022/01/04 08:21:04;;;;;;;11.13;6.00;;;8.10;99.90;;;;;;8407907;28;20273;-67
2022/01/04 08:25:07;;;;;;;8.17;5.37;;;8.10;99.90;;;;;;8415346;28;20184;-67
2022/01/04 08:29:08;;;;;;;8.73;5.63;;;8.10;99.90;;;;;;8418831;28;20196;-67
2022/01/04 08:33:10;;;;;;;9.77;5.90;;;8.00;99.90;;;;;;8409330;28;20191;-67
2022/01/04 08:37:10;;;;;;;11.20;7.40;;;8.00;99.90;;;;;;8407600;28;20197;-67
2022/01/04 08:41:11;;;;;;;13.53;9.60;;;8.00;99.90;;;;;;8413200;28;20212;-70
2022/01/04 08:45:12;;;;;;;10.93;8.10;;;8.00;99.90;;;;;;8407219;28;20368;-67
2022/01/04 08:49:13;;;;;;;12.57;11.43;;;7.90;99.90;;;;;;8415726;28;20188;-68
2022/01/04 08:53:17;;;;;;;5.10;3.50;;;7.90;99.90;;;;;;8403661;28;20189;-68
2022/01/04 08:57:18;;;;;;;5.17;3.27;;;7.90;99.90;;;;;;8418554;28;20193;-68
2022/01/04 09:01:19;;;;;;;5.43;3.07;;;7.90;99.90;;;;;;8420870;28;20216;-68
2022/01/04 09:05:20;;;;;;;5.63;3.30;;;7.90;99.90;;;;;;8399053;28;20192;-68
2022/01/04 09:09:22;;;;;;;4.53;3.40;;;8.00;99.90;;;;;;8405847;28;20231;-68
2022/01/04 09:13:25;;;;;;;5.23;3.10;;;8.10;99.90;;;;;;8406235;28;20202;-68
2022/01/04 09:21:45;;;;;;;8.00;4.83;;;8.10;99.90;;;;;;8404553;28;20382;-68
2022/01/04 09:25:51;;;;;;;6.23;4.10;;;8.20;99.90;;;;;;8417445;28;20185;-68
2022/01/04 09:29:53;;;;;;;5.73;4.70;;;8.20;99.90;;;;;;8407276;28;20188;-68
2022/01/04 09:33:56;;;;;;;5.87;3.97;;;8.30;99.90;;;;;;8409959;28;20197;-68
2022/01/04 09:37:56;;;;;;;7.43;5.60;;;8.30;99.90;;;;;;8405428;28;20192;-68
2022/01/04 09:41:59;;;;;;;9.20;8.40;;;8.20;99.90;;;;;;8407392;28;20222;-68
2022/01/04 09:46:00;;;;;;;6.67;5.90;;;8.30;99.90;;;;;;8406879;28;20180;-69
2022/01/04 09:50:08;;;;;;;7.67;5.17;;;8.30;99.90;;;;;;8408737;28;20207;-68
2022/01/04 09:54:09;;;;;;;3.87;3.10;;;8.40;99.90;;;;;;8405632;28;20303;-69
2022/01/04 09:58:10;;;;;;;4.90;3.60;;;8.50;99.90;;;;;;8407480;28;20188;-68
2022/01/04 10:02:13;;;;;;;3.73;2.87;;;8.50;99.90;;;;;;8408767;28;20188;-68
2022/01/04 10:06:15;;;;;;;3.70;2.77;;;8.70;99.90;;;;;;8403615;28;20242;-67
2022/01/04 10:10:18;;;;;;;4.50;2.67;;;8.80;99.90;;;;;;8401904;28;20232;-68
2022/01/04 10:14:41;;;;;;;3.17;2.53;;;8.80;99.90;;;;;;8414005;28;20246;-68
2022/01/04 10:18:47;;;;;;;4.03;3.03;;;8.80;99.90;;;;;;8408320;28;20208;-68
2022/01/04 10:22:50;;;;;;;8.07;4.20;;;8.80;99.90;;;;;;8390741;28;20192;-68
2022/01/04 10:26:51;;;;;;;7.07;5.43;;;8.80;99.90;;;;;;8408430;28;20249;-69
2022/01/04 10:30:52;;;;;;;7.03;4.50;;;8.80;99.90;;;;;;8410592;28;20190;-68
2022/01/04 10:34:53;;;;;;;5.57;4.07;;;8.80;99.90;;;;;;8405323;28;20193;-68
2022/01/04 10:38:54;;;;;;;5.63;3.73;;;8.80;99.90;;;;;;8413821;28;20266;-69
2022/01/04 10:42:56;;;;;;;4.77;3.73;;;8.70;99.90;;;;;;8418469;28;20185;-70
2022/01/04 10:47:08;;;;;;;4.83;3.20;;;8.70;99.90;;;;;;8416081;28;20185;-68
2022/01/04 10:51:18;;;;;;;3.93;2.70;;;8.70;99.90;;;;;;8412094;28;20203;-69
2022/01/04 10:55:19;;;;;;;7.63;3.77;;;8.80;99.90;;;;;;8413503;28;20189;-68
2022/01/04 10:59:28;;;;;;;4.40;2.70;;;9.00;99.90;;;;;;8414554;28;20234;-68
2022/01/04 11:03:31;;;;;;;5.13;2.77;;;9.30;99.90;;;;;;8416113;28;20208;-68
2022/01/04 11:07:35;;;;;;;5.00;2.77;;;9.40;99.90;;;;;;8405976;28;20189;-68
2022/01/04 11:11:37;;;;;;;4.67;4.27;;;9.60;99.90;;;;;;8404793;28;20228;-68
2022/01/04 11:15:39;;;;;;;3.70;3.00;;;9.70;99.90;;;;;;8408761;28;20208;-68
2022/01/04 11:19:40;;;;;;;4.90;2.83;;;10.00;99.90;;;;;;8406670;28;20216;-69
2022/01/04 11:23:42;;;;;;;4.97;3.60;;;10.10;99.90;;;;;;8397763;28;20179;-69
2022/01/04 11:27:44;;;;;;;5.00;3.53;;;10.20;99.90;;;;;;8405511;28;20212;-69
2022/01/04 11:31:47;;;;;;;9.77;5.90;;;10.30;99.90;;;;;;8408947;28;20195;-68
2022/01/04 11:35:49;;;;;;;8.10;4.93;;;10.30;99.90;;;;;;8407655;28;20184;-68
2022/01/04 11:39:52;;;;;;;5.03;3.27;;;10.30;99.90;;;;;;8412111;28;20308;-69
2022/01/04 11:43:53;;;;;;;6.27;3.93;;;10.20;99.90;;;;;;8394002;28;20189;-69
2022/01/04 11:47:54;;;;;;;6.97;4.67;;;9.90;99.90;;;;;;8417437;28;20186;-69
2022/01/04 11:51:55;;;;;;;8.70;4.37;;;9.60;99.90;;;;;;8405310;28;20552;-68
2022/01/04 11:56:00;;;;;;;6.53;4.23;;;9.30;99.90;;;;;;8417814;28;20188;-69
2022/01/04 12:00:03;;;;;;;11.07;5.83;;;9.10;99.90;;;;;;8417086;28;20225;-68
2022/01/04 12:04:04;;;;;;;9.00;6.57;;;9.00;99.90;;;;;;8405455;28;20186;-68
2022/01/04 12:08:19;;;;;;;24.50;22.13;;;8.90;99.90;;;;;;8429622;28;20218;-68
2022/01/04 12:12:58;;;;;;;22.90;15.97;;;8.80;99.90;;;;;;8401096;28;20189;-68
2022/01/04 12:17:00;;;;;;;22.23;13.30;;;8.80;99.90;;;;;;8403659;28;20261;-68
2022/01/04 12:21:04;;;;;;;19.83;11.13;;;8.80;99.90;;;;;;8419030;28;20212;-68
2022/01/04 12:25:08;;;;;;;22.27;13.73;;;8.70;99.90;;;;;;8413123;28;20272;-68
2022/01/04 12:29:09;;;;;;;18.00;13.07;;;8.70;99.90;;;;;;8411681;28;20185;-69
2022/01/04 12:33:42;;;;;;;18.77;11.90;;;8.60;99.90;;;;;;8412918;28;20192;-67
2022/01/04 12:37:43;;;;;;;18.57;11.20;;;8.60;99.90;;;;;;8397420;28;20232;-67
2022/01/04 12:41:46;;;;;;;20.87;13.13;;;8.60;99.90;;;;;;8409345;28;20240;-68
2022/01/04 12:46:01;;;;;;;15.77;11.43;;;8.60;99.90;;;;;;8412873;28;20191;-68
2022/01/04 12:50:05;;;;;;;18.27;12.00;;;8.60;99.90;;;;;;8411896;28;20200;-68
2022/01/04 12:54:06;;;;;;;18.47;11.53;;;8.60;99.90;;;;;;8407118;28;20189;-68
2022/01/04 12:58:07;;;;;;;35.43;18.60;;;8.60;99.90;;;;;;8410486;28;20185;-68
2022/01/04 13:02:19;;;;;;;52.37;24.67;;;8.70;99.90;;;;;;8409904;28;20490;-68
2022/01/04 13:06:21;;;;;;;31.57;18.33;;;8.70;99.90;;;;;;8418984;28;20194;-68
2022/01/04 13:10:25;;;;;;;19.23;12.37;;;8.70;99.90;;;;;;8407194;28;20197;-68
2022/01/04 13:14:30;;;;;;;17.80;10.53;;;8.80;99.90;;;;;;8406816;28;20181;-68
2022/01/04 13:18:31;;;;;;;13.60;10.27;;;8.80;99.90;;;;;;8405237;28;20295;-68
2022/01/04 13:22:32;;;;;;;21.47;12.33;;;8.80;99.90;;;;;;8406371;28;20191;-68
2022/01/04 13:26:33;;;;;;;16.50;11.87;;;8.80;99.90;;;;;;8411344;28;20185;-68
2022/01/04 13:30:41;;;;;;;20.37;13.30;;;8.80;99.90;;;;;;8416307;28;20405;-68
2022/01/04 13:34:43;;;;;;;19.13;12.20;;;8.90;99.90;;;;;;8409009;28;20426;-68
2022/01/04 13:38:44;;;;;;;20.03;14.00;;;8.90;99.90;;;;;;8402963;28;20228;-68
2022/01/04 13:42:47;;;;;;;18.47;11.47;;;8.90;99.90;;;;;;8412439;28;20267;-68
2022/01/04 13:46:48;;;;;;;19.47;11.53;;;8.90;99.90;;;;;;8413454;28;20208;-68
2022/01/04 13:50:50;;;;;;;14.13;10.60;;;9.00;99.90;;;;;;8408665;28;20203;-68
2022/01/04 13:54:50;;;;;;;14.00;9.70;;;8.90;99.90;;;;;;8406022;28;20199;-68
2022/01/04 13:58:55;;;;;;;19.50;12.53;;;8.80;99.90;;;;;;8409111;28;20263;-68
2022/01/04 14:02:56;;;;;;;15.63;9.50;;;8.70;99.90;;;;;;8411586;28;20185;-68
2022/01/04 14:06:59;;;;;;;16.93;11.20;;;8.70;99.90;;;;;;8411427;28;20184;-68
2022/01/04 14:11:03;;;;;;;16.80;11.50;;;8.60;99.90;;;;;;8402745;28;20267;-68
2022/01/04 14:15:07;;;;;;;11.73;8.93;;;8.60;99.90;;;;;;8436060;27;20270;-68
2022/01/04 14:19:29;;;;;;;16.63;10.70;;;8.60;99.90;;;;;;8403643;28;20247;-68
2022/01/04 14:23:38;;;;;;;19.43;10.03;;;8.50;99.90;;;;;;8409146;28;20233;-68
2022/01/04 14:27:40;;;;;;;18.53;11.40;;;8.60;99.90;;;;;;8411601;28;20177;-68
2022/01/04 14:31:41;;;;;;;19.93;12.23;;;8.60;99.90;;;;;;8408185;28;20207;-68
2022/01/04 14:35:43;;;;;;;33.97;16.03;;;8.60;99.90;;;;;;8401728;28;20189;-68
2022/01/04 14:39:43;;;;;;;45.80;19.77;;;8.60;99.90;;;;;;8405612;28;20240;-68
2022/01/04 14:43:44;;;;;;;33.17;17.90;;;8.60;99.90;;;;;;8400625;28;20185;-68
2022/01/04 14:47:46;;;;;;;28.50;14.47;;;8.50;99.90;;;;;;8407924;28;20318;-68
2022/01/04 14:51:47;;;;;;;18.87;11.80;;;8.50;99.90;;;;;;8402054;28;20181;-68
2022/01/04 14:55:48;;;;;;;27.30;15.90;;;8.40;99.90;;;;;;8404693;28;20184;-68
2022/01/04 14:59:49;;;;;;;35.87;22.97;;;8.30;99.90;;;;;;8413051;28;20216;-67
2022/01/04 15:03:50;;;;;;;32.40;21.30;;;8.30;99.90;;;;;;8401895;28;20185;-67
2022/01/04 15:07:52;;;;;;;25.07;17.87;;;8.20;99.90;;;;;;8395918;28;20193;-69
2022/01/04 15:11:53;;;;;;;22.27;15.67;;;8.20;99.90;;;;;;8408182;28;20188;-67
2022/01/04 15:15:55;;;;;;;22.73;14.60;;;8.20;99.90;;;;;;8404235;28;20207;-67
2022/01/04 15:19:55;;;;;;;16.07;11.67;;;8.20;99.90;;;;;;8395264;28;20219;-67
2022/01/04 15:23:56;;;;;;;17.83;12.67;;;8.00;99.90;;;;;;8412122;28;20199;-67
2022/01/04 15:32:54;;;;;;;18.10;11.13;;;8.00;99.90;;;;;;8401993;28;20192;-71
2022/01/04 15:36:55;;;;;;;17.10;10.63;;;7.90;99.90;;;;;;8414710;28;20664;-71
2022/01/04 15:40:56;;;;;;;19.63;11.70;;;7.80;99.90;;;;;;8415548;28;20215;-69
2022/01/04 15:44:57;;;;;;;15.80;11.13;;;7.70;99.90;;;;;;8408043;28;20188;-71
2022/01/04 15:48:58;;;;;;;15.60;10.07;;;7.60;99.90;;;;;;8404891;28;20195;-71
2022/01/04 15:52:58;;;;;;;16.03;11.47;;;7.50;99.90;;;;;;8415846;28;20191;-69
2022/01/04 15:56:59;;;;;;;15.17;11.20;;;7.50;99.90;;;;;;8420050;28;20228;-67
2022/01/04 16:01:01;;;;;;;13.43;8.50;;;7.40;99.90;;;;;;8405937;28;20213;-69
2022/01/04 16:05:03;;;;;;;8.83;6.33;;;7.30;99.90;;;;;;8411002;28;20188;-71
2022/01/04 16:09:07;;;;;;;10.80;6.33;;;7.20;99.90;;;;;;8417046;28;20197;-70
2022/01/04 16:13:10;;;;;;;8.87;5.03;;;7.10;99.90;;;;;;8408039;28;20192;-70
2022/01/04 16:17:23;;;;;;;6.60;4.57;;;7.00;99.90;;;;;;8415666;28;20302;-71
2022/01/04 16:21:40;;;;;;;5.03;3.90;;;6.90;99.90;;;;;;8405301;28;20213;-71
2022/01/04 16:25:41;;;;;;;5.63;3.80;;;6.90;99.90;;;;;;8418991;28;20208;-71
2022/01/04 16:29:43;;;;;;;8.27;4.80;;;6.90;99.90;;;;;;8414535;28;20533;-71
2022/01/04 16:33:44;;;;;;;8.37;4.37;;;6.90;99.90;;;;;;8414620;28;20217;-70
2022/01/04 16:37:45;;;;;;;8.77;5.73;;;6.90;99.90;;;;;;8412728;28;20189;-68
2022/01/04 16:41:47;;;;;;;20.03;9.57;;;6.90;99.90;;;;;;8404257;28;20512;-71
2022/01/04 16:45:47;;;;;;;13.70;8.97;;;6.90;99.90;;;;;;8395866;28;20186;-70
2022/01/04 16:49:51;;;;;;;14.10;7.07;;;6.90;99.90;;;;;;8409175;28;20217;-71
2022/01/04 16:53:53;;;;;;;5.73;4.00;;;6.90;99.90;;;;;;8408816;28;20198;-72
2022/01/04 16:57:53;;;;;;;5.00;3.07;;;6.80;99.90;;;;;;8416971;28;20189;-70
2022/01/04 17:01:54;;;;;;;2.47;1.83;;;6.60;99.90;;;;;;8398831;28;20211;-69
2022/01/04 17:05:55;;;;;;;3.47;2.13;;;6.50;99.90;;;;;;8409306;28;20234;-69
2022/01/04 17:09:58;;;;;;;3.03;1.70;;;6.40;99.90;;;;;;8410350;28;20223;-71
2022/01/04 17:18:19;;;;;;;1.83;1.43;;;6.20;99.90;;;;;;8405569;28;20264;-70
2022/01/04 17:22:25;;;;;;;2.53;1.60;;;6.10;99.90;;;;;;8402782;28;20213;-70
2022/01/04 17:26:27;;;;;;;2.80;1.70;;;6.00;99.90;;;;;;8417637;28;20195;-70
2022/01/04 17:30:29;;;;;;;7.03;3.50;;;5.90;99.90;;;;;;8419959;28;20187;-71
2022/01/04 17:34:30;;;;;;;9.63;4.40;;;5.90;99.90;;;;;;8408431;28;20195;-71
2022/01/04 17:38:31;;;;;;;4.77;2.93;;;5.80;99.90;;;;;;8420921;28;20207;-71
2022/01/04 17:42:33;;;;;;;4.13;2.77;;;5.80;99.90;;;;;;8397692;28;20190;-71
2022/01/04 17:46:33;;;;;;;3.53;2.60;;;5.80;99.90;;;;;;8403876;28;20184;-69
2022/01/04 17:50:36;;;;;;;3.10;2.40;;;5.80;99.90;;;;;;8425026;28;20257;-70
2022/01/04 17:54:37;;;;;;;7.13;3.20;;;5.80;99.90;;;;;;8422002;28;20192;-71
2022/01/04 17:58:37;;;;;;;3.70;2.47;;;5.80;99.90;;;;;;8419104;28;20180;-72
2022/01/04 18:02:39;;;;;;;3.50;2.97;;;5.80;99.90;;;;;;8404528;28;20194;-71
2022/01/04 18:06:39;;;;;;;3.97;3.30;;;5.80;99.90;;;;;;8414467;28;20176;-72
2022/01/04 18:10:40;;;;;;;7.57;3.43;;;5.80;99.90;;;;;;8399282;28;20188;-71
2022/01/04 18:14:44;;;;;;;6.77;3.47;;;5.70;99.90;;;;;;8407084;28;20180;-69
2022/01/04 18:18:45;;;;;;;7.30;2.47;;;5.70;99.90;;;;;;8407986;28;20192;-70
2022/01/04 18:22:46;;;;;;;2.60;1.67;;;5.60;99.90;;;;;;8409028;28;20188;-68
2022/01/04 18:26:47;;;;;;;13.87;5.53;;;5.60;99.90;;;;;;8401012;28;20189;-72
2022/01/04 18:30:48;;;;;;;11.03;4.27;;;5.50;99.90;;;;;;8403459;28;20570;-71
2022/01/04 18:34:49;;;;;;;5.53;2.00;;;5.50;99.90;;;;;;8410606;28;20256;-70
2022/01/04 18:38:50;;;;;;;2.97;2.27;;;5.50;99.90;;;;;;8413616;28;20306;-71
2022/01/04 18:42:51;;;;;;;3.27;2.03;;;5.50;99.90;;;;;;8410661;28;20184;-70
2022/01/04 18:46:53;;;;;;;3.93;2.27;;;5.50;99.90;;;;;;8410545;28;20192;-72
2022/01/04 18:50:54;;;;;;;2.73;1.60;;;5.50;99.90;;;;;;8410044;28;20263;-73
2022/01/04 18:54:55;;;;;;;3.20;1.90;;;5.50;99.90;;;;;;8400425;28;20275;-71
2022/01/04 18:58:56;;;;;;;2.17;1.80;;;5.50;99.90;;;;;;8408878;28;20239;-70
2022/01/04 19:02:59;;;;;;;1.77;1.40;;;5.50;99.90;;;;;;8408406;28;20192;-72
2022/01/04 19:07:00;;;;;;;2.23;1.27;;;5.40;99.90;;;;;;8404939;28;20189;-68
2022/01/04 19:11:01;;;;;;;1.50;1.20;;;5.40;99.90;;;;;;8412191;28;20196;-71
2022/01/04 19:15:04;;;;;;;1.60;0.97;;;5.40;99.90;;;;;;8416954;28;20208;-71
2022/01/04 19:19:04;;;;;;;1.37;0.77;;;5.40;99.90;;;;;;8416941;28;20208;-71
2022/01/04 19:23:07;;;;;;;1.57;1.27;;;5.40;99.90;;;;;;8414783;28;20188;-70
2022/01/04 19:27:08;;;;;;;2.27;1.83;;;5.40;99.90;;;;;;8415813;28;20200;-72
2022/01/04 19:31:10;;;;;;;1.13;1.00;;;5.40;99.90;;;;;;8394908;28;20189;-71
2022/01/04 19:39:32;;;;;;;1.20;1.00;;;5.30;99.90;;;;;;8412669;28;20219;-70
2022/01/04 19:43:33;;;;;;;2.50;1.40;;;5.30;99.90;;;;;;8415287;28;20212;-70
2022/01/04 19:47:34;;;;;;;1.67;1.40;;;5.20;99.90;;;;;;8404297;28;20250;-71
2022/01/04 19:51:36;;;;;;;1.50;1.30;;;5.20;99.90;;;;;;8405489;28;20311;-70
2022/01/04 19:55:37;;;;;;;1.10;1.00;;;5.10;99.90;;;;;;8423407;28;20202;-71
2022/01/04 19:59:44;;;;;;;1.63;1.17;;;5.00;99.90;;;;;;8414632;28;20212;-70
2022/01/04 20:03:45;;;;;;;1.10;1.00;;;5.00;99.90;;;;;;8406691;28;20273;-71
2022/01/04 20:07:49;;;;;;;2.00;1.43;;;5.00;99.90;;;;;;8404042;28;20292;-70
2022/01/04 20:11:52;;;;;;;1.60;1.20;;;5.00;99.90;;;;;;8420655;28;20192;-70
2022/01/04 20:15:53;;;;;;;2.10;1.60;;;4.90;99.90;;;;;;8408263;28;20211;-70
2022/01/04 20:19:54;;;;;;;2.00;1.33;;;4.80;99.90;;;;;;8421842;28;20216;-70
2022/01/04 20:23:55;;;;;;;2.30;1.60;;;4.80;99.90;;;;;;8415441;28;20192;-72
2022/01/04 20:27:58;;;;;;;2.33;1.67;;;4.80;99.90;;;;;;8414747;28;20179;-72
2022/01/04 20:31:59;;;;;;;2.70;2.10;;;4.70;99.90;;;;;;8397513;28;20201;-71
2022/01/04 20:36:00;;;;;;;1.53;1.17;;;4.70;99.90;;;;;;8412679;28;20193;-70
2022/01/04 20:40:04;;;;;;;2.30;1.43;;;4.80;99.90;;;;;;8410407;28;20302;-72
2022/01/04 20:44:05;;;;;;;3.20;2.10;;;4.90;99.90;;;;;;8413788;28;20232;-71
2022/01/04 20:48:07;;;;;;;3.73;2.57;;;4.90;99.90;;;;;;8409765;28;20630;-71
2022/01/04 20:52:08;;;;;;;3.87;2.73;;;4.90;99.90;;;;;;8401664;28;20205;-72
2022/01/04 20:56:09;;;;;;;6.30;3.80;;;4.90;99.90;;;;;;8416078;28;20220;-72
2022/01/04 21:00:15;;;;;;;5.57;3.27;;;4.80;99.90;;;;;;8411333;28;20213;-69
2022/01/04 21:04:16;;;;;;;4.77;2.83;;;4.80;99.90;;;;;;8413375;28;20185;-68
2022/01/04 21:08:17;;;;;;;4.13;2.90;;;4.80;99.90;;;;;;8406559;28;20185;-69
2022/01/04 21:12:18;;;;;;;6.20;3.67;;;4.80;99.90;;;;;;8408015;28;20192;-72
2022/01/04 21:16:19;;;;;;;4.27;3.30;;;4.90;99.90;;;;;;8400397;28;20262;-70
2022/01/04 21:20:19;;;;;;;3.27;2.40;;;4.90;99.90;;;;;;8406014;28;20246;-71
2022/01/04 21:24:21;;;;;;;2.93;1.90;;;5.00;99.90;;;;;;8400579;28;20289;-72
2022/01/04 21:28:22;;;;;;;3.30;2.40;;;5.10;99.90;;;;;;8408076;28;20188;-71
2022/01/04 21:32:23;;;;;;;4.30;2.40;;;5.10;99.90;;;;;;8412597;28;20184;-72
2022/01/04 21:36:24;;;;;;;4.93;2.73;;;5.10;99.90;;;;;;8414162;28;20200;-72